Time;durP1;ratioP1;P1;durP2;ratioP2;P2;SDS_P1;SDS_P2;PMS_P1;PMS_P2;Temp;Humidity;BMP_temperature;BMP_pressure;BME280_temperature;BME280_humidity;BME280_pressure;Samples;Min_cycle;Max_cycle;Signal;HPM_P1;HPM_P2
2021/12/07 00:01:56;;;;;;;1.40;1.40;;;;;;;3.27;81.70;99741.28;5040987;28;20446;-79
2021/12/07 00:04:22;;;;;;;1.67;1.58;;;;;;;3.09;82.60;99743.88;5045586;28;20438;-79
2021/12/07 00:06:47;;;;;;;1.73;1.63;;;;;;;3.07;83.49;99751.28;5035552;28;20407;-79
2021/12/07 00:09:16;;;;;;;2.00;1.70;;;;;;;3.18;82.51;99753.28;5033309;28;20825;-79
2021/12/07 00:11:43;;;;;;;2.40;1.90;;;;;;;3.06;83.71;99747.78;5032060;28;20410;-79
2021/12/07 00:14:13;;;;;;;1.80;1.70;;;;;;;2.91;84.53;99752.59;5039461;28;20403;-79
2021/12/07 00:16:41;;;;;;;1.90;1.80;;;;;;;2.84;85.21;99745.63;5043248;28;20997;-79
2021/12/07 00:19:06;;;;;;;2.05;1.95;;;;;;;2.88;85.28;99746.84;5033053;28;20898;-79
2021/12/07 00:21:32;;;;;;;2.03;1.60;;;;;;;3.02;84.80;99732.38;5032161;28;20414;-78
2021/12/07 00:23:57;;;;;;;2.00;1.90;;;;;;;3.05;84.31;99734.63;5034726;28;20909;-78
2021/12/07 00:26:22;;;;;;;1.88;1.73;;;;;;;3.01;85.03;99738.75;5037965;28;20407;-79
2021/12/07 00:28:50;;;;;;;1.80;1.80;;;;;;;2.94;85.48;99735.28;5038429;28;20512;-79
2021/12/07 00:31:26;;;;;;;1.80;1.73;;;;;;;2.98;85.26;99731.97;5033265;28;20411;-79
2021/12/07 00:34:07;;;;;;;2.20;2.00;;;;;;;2.95;84.75;99739.63;5031523;28;20677;-79
2021/12/07 00:36:37;;;;;;;1.80;1.80;;;;;;;2.92;85.66;99743.53;5044415;28;20754;-79
2021/12/07 00:39:05;;;;;;;1.60;1.50;;;;;;;3.02;85.07;99730.53;5036554;28;20498;-79
2021/12/07 00:41:30;;;;;;;2.08;1.92;;;;;;;3.03;84.98;99731.34;5030981;28;20890;-78
2021/12/07 00:43:56;;;;;;;1.83;1.83;;;;;;;3.05;85.15;99718.56;5046225;28;20480;-79
2021/12/07 00:46:23;;;;;;;1.88;1.77;;;;;;;3.08;84.72;99724.31;5037252;28;20415;-79
2021/12/07 00:48:49;;;;;;;2.73;2.53;;;;;;;3.07;84.89;99724.50;5035514;28;20587;-79
2021/12/07 00:51:14;;;;;;;2.90;2.73;;;;;;;3.07;85.02;99717.31;5036322;28;20853;-79
2021/12/07 00:53:39;;;;;;;3.60;2.83;;;;;;;3.04;85.31;99722.25;5033671;28;20910;-79
2021/12/07 00:56:05;;;;;;;2.20;2.10;;;;;;;3.07;85.43;99716.47;5035890;28;20412;-78
2021/12/07 00:58:31;;;;;;;2.57;2.37;;;;;;;3.20;84.56;99719.09;5029446;28;20423;-78
2021/12/07 01:01:01;;;;;;;2.60;2.40;;;;;;;3.12;85.04;99720.19;5033075;28;20790;-79
2021/12/07 01:03:27;;;;;;;2.60;2.40;;;;;;;3.12;85.14;99700.63;5036917;28;20445;-80
2021/12/07 01:06:04;;;;;;;3.58;2.33;;;;;;;3.21;85.35;99709.19;5037515;28;20405;-79
2021/12/07 01:25:04;;;;;;;2.55;1.90;;;;;;;3.23;85.92;99726.69;5046532;28;20472;-79
2021/12/07 01:27:29;;;;;;;4.70;2.47;;;;;;;3.26;85.58;99725.47;5041830;28;20407;-80
2021/12/07 01:30:04;;;;;;;2.20;1.70;;;;;;;3.30;85.46;99719.44;5040614;28;20872;-79
2021/12/07 01:33:05;;;;;;;3.63;2.00;;;;;;;3.36;85.20;99734.63;5038508;28;20797;-79
2021/12/07 02:01:45;;;;;;;1.80;1.70;;;;;;;3.42;86.17;99773.16;5044592;28;20416;-79
2021/12/07 02:04:11;;;;;;;1.83;1.73;;;;;;;3.39;86.65;99773.59;5039008;28;20403;-79
2021/12/07 02:06:36;;;;;;;1.93;1.80;;;;;;;3.39;86.77;99787.75;5033817;28;20434;-79
2021/12/07 02:09:05;;;;;;;3.07;1.97;;;;;;;3.41;86.78;99784.88;5036114;28;20429;-79
2021/12/07 02:11:30;;;;;;;2.10;2.00;;;;;;;3.39;86.94;99793.13;5039602;28;20449;-79
2021/12/07 02:16:22;;;;;;;3.67;2.30;;;;;;;3.41;87.27;99796.44;5035259;28;20434;-78
2021/12/07 02:18:47;;;;;;;2.22;2.13;;;;;;;3.44;87.30;99801.34;5037956;28;20403;-79
2021/12/07 02:21:18;;;;;;;2.20;2.10;;;;;;;3.49;87.29;99814.91;5043141;28;20393;-78
2021/12/07 02:23:44;;;;;;;2.27;2.03;;;;;;;3.52;87.13;99824.41;5039267;28;20977;-78
2021/12/07 02:26:09;;;;;;;2.30;2.20;;;;;;;3.38;87.66;99823.66;5047051;28;20395;-78
2021/12/07 02:28:38;;;;;;;2.23;2.07;;;;;;;3.40;88.09;99826.91;5042108;28;20422;-78
2021/12/07 02:31:05;;;;;;;2.25;2.05;;;;;;;3.37;88.40;99835.38;5052613;28;20400;-78
2021/12/07 02:33:31;;;;;;;3.10;2.45;;;;;;;3.43;88.36;99836.38;5033444;28;20395;-79
2021/12/07 02:35:57;;;;;;;2.47;2.38;;;;;;;3.50;88.17;99826.44;5033687;28;20408;-79
2021/12/07 02:38:23;;;;;;;2.50;2.40;;;;;;;3.41;87.96;99817.84;5052391;28;20414;-78
2021/12/07 02:40:48;;;;;;;2.53;2.33;;;;;;;3.41;88.43;99803.63;5034572;28;20477;-78
2021/12/07 02:43:13;;;;;;;3.03;2.83;;;;;;;3.39;88.37;99816.44;5039528;28;20487;-78
2021/12/07 02:45:39;;;;;;;2.70;2.50;;;;;;;3.39;88.83;99801.16;5033205;28;20399;-78
2021/12/07 02:48:04;;;;;;;3.77;2.67;;;;;;;3.45;88.59;99796.81;5049413;28;20436;-78
2021/12/07 02:50:30;;;;;;;3.20;3.00;;;;;;;3.33;88.63;99795.84;5045085;28;20405;-79
2021/12/07 02:52:55;;;;;;;2.37;2.27;;;;;;;3.36;88.84;99804.25;5045382;28;20398;-79
2021/12/07 02:55:20;;;;;;;2.90;2.30;;;;;;;3.37;88.34;99805.09;5036854;28;20407;-80
2021/12/07 02:57:47;;;;;;;2.50;2.30;;;;;;;3.25;89.10;99812.16;5034151;28;20769;-79
2021/12/07 03:00:19;;;;;;;3.15;2.55;;;;;;;3.32;89.14;99819.16;5053656;28;20762;-78
2021/12/07 03:02:53;;;;;;;2.45;2.25;;;;;;;3.36;88.69;99816.88;5032751;28;20399;-78
2021/12/07 03:05:34;;;;;;;2.30;2.10;;;;;;;3.34;88.86;99819.75;5035400;28;20910;-79
2021/12/07 03:26:56;;;;;;;2.00;1.90;;;;;;;3.60;89.03;99875.84;5047818;28;20397;-78
2021/12/07 03:29:21;;;;;;;2.33;2.23;;;;;;;3.64;88.78;99887.81;5047952;28;20417;-78
2021/12/07 03:31:47;;;;;;;2.93;1.93;;;;;;;3.67;88.99;99884.69;5044094;28;20414;-78
2021/12/07 03:34:12;;;;;;;5.93;2.37;;;;;;;3.67;88.79;99882.00;5042404;28;20433;-78
2021/12/07 03:36:37;;;;;;;4.45;4.05;;;;;;;3.69;88.80;99879.09;5031907;28;20397;-78
2021/12/07 03:39:06;;;;;;;6.17;4.03;;;;;;;3.76;88.43;99869.16;5036306;28;20414;-77
2021/12/07 03:41:32;;;;;;;4.05;3.65;;;;;;;3.80;88.50;99870.41;5042555;28;20419;-78
2021/12/07 03:43:58;;;;;;;3.08;2.88;;;;;;;3.77;88.33;99880.72;5031339;28;20882;-78
2021/12/07 03:46:23;;;;;;;3.58;2.30;;;;;;;3.77;88.56;99894.13;5036281;28;20486;-77
2021/12/07 03:48:49;;;;;;;3.27;2.50;;;;;;;3.84;88.88;99908.31;5051281;28;20768;-78
2021/12/07 03:51:14;;;;;;;2.90;2.57;;;;;;;3.92;88.47;99913.44;5037565;28;20747;-78
2021/12/07 03:53:40;;;;;;;4.50;2.73;;;;;;;3.83;88.08;99909.34;5032025;28;20416;-77
2021/12/07 03:56:06;;;;;;;4.30;3.90;;;;;;;3.71;87.92;99895.81;5039803;28;20425;-78
2021/12/07 03:58:32;;;;;;;2.70;2.50;;;;;;;3.63;87.66;99886.16;5041646;28;20896;-78
2021/12/07 04:00:58;;;;;;;3.45;2.33;;;;;;;3.42;87.76;99891.81;5042905;28;20480;-78
2021/12/07 04:03:24;;;;;;;3.00;2.73;;;;;;;3.28;88.47;99878.69;5039805;28;20489;-79
2021/12/07 04:05:54;;;;;;;3.58;3.20;;;;;;;3.29;88.82;99889.19;5039275;28;20478;-78
2021/12/07 04:08:26;;;;;;;4.20;3.53;;;;;;;3.32;88.40;99894.13;5037286;28;20764;-78
2021/12/07 04:10:53;;;;;;;3.10;2.90;;;;;;;3.29;88.73;99886.53;5032406;28;20446;-79
2021/12/07 04:13:18;;;;;;;4.27;3.87;;;;;;;3.29;88.75;99899.91;5036320;28;20490;-78
2021/12/07 04:15:44;;;;;;;4.33;2.77;;;;;;;3.30;88.47;99903.38;5037148;28;20484;-78
2021/12/07 04:18:10;;;;;;;5.05;3.00;;;;;;;3.31;88.33;99899.69;5032287;28;20421;-79
2021/12/07 04:20:36;;;;;;;3.88;3.17;;;;;;;3.30;88.73;99904.22;5045711;28;20810;-78
2021/12/07 04:23:02;;;;;;;3.40;3.10;;;;;;;3.28;88.79;99913.50;5045433;28;20398;-79
2021/12/07 04:25:27;;;;;;;2.47;2.13;;;;;;;3.29;88.99;99918.66;5036750;28;20901;-79
2021/12/07 04:27:54;;;;;;;4.40;2.47;;;;;;;3.29;88.80;99915.97;5034296;28;20498;-79
2021/12/07 04:30:26;;;;;;;6.13;2.53;;;;;;;3.27;89.02;99914.53;5033477;28;20430;-79
2021/12/07 04:32:52;;;;;;;3.75;2.50;;;;;;;3.25;88.89;99912.06;5033574;28;20419;-79
2021/12/07 04:35:18;;;;;;;4.15;2.17;;;;;;;3.26;88.88;99919.06;5036406;28;20426;-79
2021/12/07 04:37:44;;;;;;;3.40;2.20;;;;;;;3.26;88.72;99919.06;5036283;28;20399;-79
2021/12/07 04:40:15;;;;;;;3.67;1.90;;;;;;;3.26;88.46;99912.91;5037225;28;20446;-79
2021/12/07 04:42:41;;;;;;;3.47;1.70;;;;;;;3.24;88.80;99918.44;5031725;28;20837;-79
2021/12/07 04:45:10;;;;;;;5.32;2.10;;;;;;;3.22;88.73;99927.72;5045369;28;20485;-79
2021/12/07 04:47:49;;;;;;;4.38;1.80;;;;;;;3.26;88.91;99928.97;5038551;28;20403;-79
2021/12/07 04:58:14;;;;;;;3.97;2.13;;;;;;;3.53;88.44;99959.97;5045029;28;20389;-79
2021/12/07 05:00:40;;;;;;;1.50;1.40;;;;;;;3.57;88.25;99955.84;5040314;28;20498;-79
2021/12/07 05:03:10;;;;;;;3.80;1.70;;;;;;;3.63;87.89;99955.00;5036632;28;21166;-79
2021/12/07 05:05:41;;;;;;;2.70;1.73;;;;;;;3.63;87.77;99955.00;5039488;28;20865;-79
2021/12/07 05:08:10;;;;;;;2.53;1.83;;;;;;;3.68;87.97;99963.22;5043024;28;20505;-79
2021/12/07 05:11:11;;;;;;;2.20;1.70;;;;;;;3.74;87.99;99964.22;5031194;28;20411;-79
2021/12/07 05:13:28;;;;;;;2.95;1.48;;;;;;;3.80;87.31;99968.72;5035950;28;20398;-80
2021/12/07 05:16:12;;;;;;;2.00;1.80;;;;;;;3.83;87.37;99963.78;5038864;28;20407;-79
2021/12/07 05:24:08;;;;;;;7.85;1.73;;;;;;;3.88;87.30;99973.88;5042020;28;20820;-79
2021/12/07 05:37:47;;;;;;;2.65;2.17;;;;;;;3.85;86.60;99991.19;5034787;28;20411;-79
2021/12/07 05:40:19;;;;;;;6.20;1.70;;;;;;;3.91;86.01;99986.84;5030224;28;20422;-79
2021/12/07 05:42:46;;;;;;;3.28;1.30;;;;;;;3.94;85.96;99991.78;5038691;28;20399;-79
2021/12/07 05:45:19;;;;;;;4.80;1.48;;;;;;;3.93;85.94;100011.56;5036850;28;20878;-79
2021/12/07 05:47:47;;;;;;;2.75;2.05;;;;;;;3.88;86.28;100011.38;5036417;28;20403;-80
2021/12/07 05:50:16;;;;;;;4.13;1.67;;;;;;;3.87;86.53;100025.81;5057950;28;20911;-79
2021/12/07 05:52:41;;;;;;;2.80;1.63;;;;;;;3.91;86.52;100021.69;5037409;28;20402;-79
2021/12/07 05:55:07;;;;;;;4.00;1.90;;;;;;;3.90;86.90;100028.06;5042977;28;20452;-79
2021/12/07 05:57:33;;;;;;;2.95;1.30;;;;;;;3.93;86.03;100036.50;5038448;28;20914;-81
2021/12/07 05:59:58;;;;;;;5.05;1.55;;;;;;;3.95;86.24;100042.47;5032584;28;20434;-79
2021/12/07 06:02:24;;;;;;;2.87;1.57;;;;;;;3.97;86.14;100036.91;5052561;28;20403;-80
2021/12/07 06:04:49;;;;;;;3.05;2.15;;;;;;;3.96;86.70;100037.94;5043368;28;20411;-80
2021/12/07 06:07:14;;;;;;;4.43;2.60;;;;;;;3.94;86.16;100037.34;5040718;28;20885;-79
2021/12/07 06:09:40;;;;;;;3.93;1.60;;;;;;;3.93;86.16;100041.03;5042042;28;20413;-78
2021/12/07 06:12:05;;;;;;;2.90;1.87;;;;;;;3.93;86.22;100049.09;5046001;28;20407;-80
2021/12/07 06:14:35;;;;;;;6.35;2.00;;;;;;;3.90;86.01;100058.38;5033536;28;20482;-79
2021/12/07 06:17:00;;;;;;;6.27;1.87;;;;;;;3.83;86.45;100056.75;5032329;28;20395;-80
2021/12/07 06:19:27;;;;;;;5.93;2.00;;;;;;;3.79;86.58;100060.91;5033694;28;20826;-79
2021/12/07 06:21:52;;;;;;;5.07;1.77;;;;;;;3.76;87.04;100056.78;5038968;28;21199;-79
2021/12/07 06:24:17;;;;;;;5.80;2.28;;;;;;;3.83;86.93;100072.84;5038438;28;20406;-80
2021/12/07 06:26:43;;;;;;;5.53;2.23;;;;;;;3.89;86.40;100074.66;5038026;28;20411;-79
2021/12/07 06:29:08;;;;;;;8.60;2.77;;;;;;;3.94;85.93;100077.56;5038379;28;20774;-79
2021/12/07 06:31:34;;;;;;;5.93;2.63;;;;;;;3.95;86.63;100076.53;5036980;28;20405;-79
2021/12/07 06:33:59;;;;;;;8.50;2.60;;;;;;;3.98;86.35;100068.88;5034093;28;20430;-81
2021/12/07 06:36:25;;;;;;;7.93;1.73;;;;;;;4.02;86.14;100072.78;5049855;28;20402;-80
2021/12/07 06:38:51;;;;;;;3.63;1.63;;;;;;;4.04;86.03;100073.41;5035063;28;20405;-80
2021/12/07 06:41:16;;;;;;;3.83;2.15;;;;;;;4.11;85.53;100068.84;4977885;28;1734312;-80
2021/12/07 06:43:41;;;;;;;5.18;2.17;;;;;;;4.13;85.75;100082.03;5048665;28;20769;-80
2021/12/07 06:46:07;;;;;;;8.53;1.97;;;;;;;4.10;85.70;100087.81;5037004;28;20411;-80
2021/12/07 06:48:32;;;;;;;5.33;2.30;;;;;;;4.08;85.49;100095.25;5046586;28;20901;-80
2021/12/07 06:50:58;;;;;;;7.43;2.90;;;;;;;4.06;85.90;100100.81;5039439;28;20403;-79
2021/12/07 06:53:23;;;;;;;5.60;2.00;;;;;;;4.09;85.57;100094.19;5036157;28;20407;-80
2021/12/07 06:55:48;;;;;;;11.27;2.27;;;;;;;4.10;85.32;100095.84;5040780;28;20432;-80
2021/12/07 06:58:14;;;;;;;7.23;2.07;;;;;;;4.08;85.34;100095.25;5038398;28;20460;-80
2021/12/07 07:00:39;;;;;;;6.93;2.00;;;;;;;4.08;85.23;100089.91;5034621;28;20403;-80
2021/12/07 07:03:05;;;;;;;5.33;3.07;;;;;;;3.95;85.27;100100.66;5037998;28;20890;-80
2021/12/07 07:05:30;;;;;;;8.10;2.50;;;;;;;3.76;86.32;100110.38;5038534;28;20486;-80
2021/12/07 07:07:57;;;;;;;6.67;2.53;;;;;;;3.78;86.62;100104.81;5040542;28;20399;-80
2021/12/07 07:10:23;;;;;;;6.07;2.23;;;;;;;3.77;86.02;100106.66;5033268;28;20456;-80
2021/12/07 07:12:48;;;;;;;10.67;3.13;;;;;;;3.70;86.09;100118.44;5032545;28;20478;-79
2021/12/07 07:15:15;;;;;;;5.03;2.17;;;;;;;3.65;85.99;100127.91;5031866;28;20754;-79
2021/12/07 07:17:40;;;;;;;5.80;2.17;;;;;;;3.59;86.40;100123.38;5039574;28;20967;-79
2021/12/07 07:20:09;;;;;;;7.40;2.45;;;;;;;3.62;86.21;100135.56;5031661;28;20450;-79
2021/12/07 07:22:35;;;;;;;8.30;2.70;;;;;;;3.61;86.12;100139.25;5037090;28;20401;-80
2021/12/07 07:25:00;;;;;;;8.13;2.90;;;;;;;3.58;85.90;100153.91;5035077;28;20486;-79
2021/12/07 07:27:26;;;;;;;4.68;2.33;;;;;;;3.56;86.01;100161.31;5035643;28;20771;-80
2021/12/07 07:29:51;;;;;;;5.77;2.23;;;;;;;3.58;86.19;100156.59;5036286;28;20423;-79
2021/12/07 07:32:16;;;;;;;6.90;2.65;;;;;;;3.64;86.32;100168.31;5032205;28;20867;-80
2021/12/07 07:34:42;;;;;;;5.63;2.60;;;;;;;3.70;86.66;100161.31;5037696;28;20791;-79
2021/12/07 07:37:07;;;;;;;3.73;2.07;;;;;;;3.77;86.47;100152.22;5032085;28;20399;-78
2021/12/07 07:39:32;;;;;;;5.65;2.13;;;;;;;3.79;86.21;100168.13;5034571;28;20401;-79
2021/12/07 07:41:58;;;;;;;6.50;1.93;;;;;;;3.79;86.12;100158.19;5036947;28;20406;-80
2021/12/07 07:44:23;;;;;;;6.00;2.10;;;;;;;3.84;86.32;100168.31;5037122;28;20405;-79
2021/12/07 07:46:49;;;;;;;5.20;2.47;;;;;;;3.84;86.13;100170.97;5040989;28;20985;-79
2021/12/07 07:49:14;;;;;;;7.07;2.35;;;;;;;3.86;86.15;100174.28;5039868;28;20798;-79
2021/12/07 07:51:39;;;;;;;5.37;2.10;;;;;;;3.88;85.97;100172.22;5038823;28;20399;-80
2021/12/07 07:54:06;;;;;;;8.27;2.90;;;;;;;3.96;85.69;100161.25;5031821;28;20482;-78
2021/12/07 07:56:32;;;;;;;6.57;2.00;;;;;;;4.08;85.33;100168.44;5033938;28;20833;-79
2021/12/07 07:58:58;;;;;;;8.40;1.60;;;;;;;4.13;84.79;100163.31;5045975;28;20493;-81
2021/12/07 08:01:24;;;;;;;6.57;1.95;;;;;;;4.22;84.42;100173.78;5037244;28;20524;-79
2021/12/07 08:03:50;;;;;;;3.33;1.70;;;;;;;4.22;84.35;100171.09;5039588;28;20435;-80
2021/12/07 08:06:17;;;;;;;4.70;1.70;;;;;;;4.14;84.44;100167.63;5042021;28;20403;-79
2021/12/07 08:08:42;;;;;;;5.40;1.80;;;;;;;4.18;84.04;100186.81;5037677;28;20405;-79
2021/12/07 08:11:07;;;;;;;8.83;1.93;;;;;;;4.22;84.40;100182.66;5036499;28;20415;-79
2021/12/07 08:13:33;;;;;;;7.57;2.27;;;;;;;4.28;84.44;100186.38;5038202;28;20488;-79
2021/12/07 08:15:59;;;;;;;4.40;2.33;;;;;;;4.36;83.87;100191.50;5034976;28;20527;-81
2021/12/07 08:18:24;;;;;;;11.18;4.43;;;;;;;4.39;82.97;100186.53;5034899;28;20559;-80
2021/12/07 08:20:50;;;;;;;4.23;2.27;;;;;;;4.30;83.54;100182.44;5034766;28;20934;-79
2021/12/07 08:23:16;;;;;;;5.57;2.33;;;;;;;4.34;84.22;100180.16;5030378;28;20419;-80
2021/12/07 08:25:45;;;;;;;7.97;2.50;;;;;;;4.42;83.43;100179.91;5038991;28;20481;-80
2021/12/07 08:28:13;;;;;;;6.45;1.90;;;;;;;4.48;83.00;100182.56;5031362;28;20421;-80
2021/12/07 08:30:40;;;;;;;5.93;2.00;;;;;;;4.50;83.13;100179.69;5034073;28;20403;-79
2021/12/07 08:33:06;;;;;;;5.40;1.77;;;;;;;4.59;83.42;100189.16;5032146;28;20479;-79
2021/12/07 08:35:32;;;;;;;6.25;1.98;;;;;;;4.74;83.06;100186.22;5039566;28;20442;-79
2021/12/07 08:37:57;;;;;;;5.90;1.63;;;;;;;4.72;82.56;100186.41;5044760;28;20852;-80
2021/12/07 08:40:26;;;;;;;9.40;2.15;;;;;;;4.76;82.15;100190.31;5046235;28;20424;-80
2021/12/07 08:42:52;;;;;;;5.93;1.90;;;;;;;4.98;81.88;100197.00;5034574;28;20978;-80
2021/12/07 08:45:20;;;;;;;7.07;3.15;;;;;;;4.82;81.90;100184.09;5039053;28;20395;-79
2021/12/07 08:47:46;;;;;;;7.22;2.42;;;;;;;4.98;81.72;100180.91;5032010;28;20450;-80
2021/12/07 08:50:17;;;;;;;5.70;1.80;;;;;;;4.94;81.36;100187.75;5031169;28;20453;-79
2021/12/07 08:52:44;;;;;;;7.10;1.87;;;;;;;5.00;81.88;100178.84;5030920;28;20406;-79
2021/12/07 09:00:24;;;;;;;5.78;1.95;;;;;;;5.97;79.60;100186.38;5039446;28;20922;-79
2021/12/07 09:02:50;;;;;;;9.75;2.45;;;;;;;6.61;76.69;100188.59;5039942;28;20402;-81
2021/12/07 09:05:17;;;;;;;5.30;1.90;;;;;;;6.77;75.35;100179.06;5046933;28;20412;-81
2021/12/07 09:07:43;;;;;;;7.80;1.98;;;;;;;6.39;75.32;100173.94;5037285;28;20844;-81
2021/12/07 09:10:08;;;;;;;10.43;2.77;;;;;;;5.72;77.55;100182.88;5030608;28;20490;-80
2021/12/07 09:12:33;;;;;;;6.65;1.83;;;;;;;5.44;78.42;100191.34;5038624;28;20465;-80
2021/12/07 09:14:59;;;;;;;9.17;2.00;;;;;;;5.18;79.44;100183.47;5041380;28;20413;-80
2021/12/07 09:17:24;;;;;;;10.80;1.90;;;;;;;4.95;79.75;100194.75;5046812;28;20399;-80
2021/12/07 09:19:50;;;;;;;8.55;1.98;;;;;;;4.76;80.65;100200.22;5035976;28;20492;-80
2021/12/07 09:22:16;;;;;;;6.95;3.20;;;;;;;4.79;80.97;100200.63;5042915;28;20451;-80
2021/12/07 09:24:41;;;;;;;9.68;3.83;;;;;;;4.99;80.96;100211.28;5037689;28;20932;-80
2021/12/07 09:27:07;;;;;;;9.43;3.40;;;;;;;5.20;80.17;100217.13;5030927;28;20400;-80
2021/12/07 09:29:33;;;;;;;7.68;2.35;;;;;;;5.44;78.87;100215.53;5030645;28;20410;-80
2021/12/07 09:31:59;;;;;;;8.63;3.20;;;;;;;5.45;78.06;100217.19;5037022;28;20410;-80
2021/12/07 09:34:24;;;;;;;7.77;2.47;;;;;;;5.49;78.51;100233.72;5041294;28;20415;-80
2021/12/07 09:36:49;;;;;;;6.03;2.20;;;;;;;5.37;78.81;100225.50;5044664;28;20411;-80
2021/12/07 09:39:17;;;;;;;7.40;2.20;;;;;;;5.47;79.11;100231.22;5047653;28;20971;-80
2021/12/07 09:41:44;;;;;;;6.28;2.78;;;;;;;5.82;78.71;100233.47;5040554;28;20430;-80
2021/12/07 09:44:10;;;;;;;2.95;2.20;;;;;;;6.31;76.94;100216.47;5041111;28;20488;-80
2021/12/07 09:46:37;;;;;;;6.17;2.23;;;;;;;6.46;76.90;100219.63;5043265;28;20609;-80
2021/12/07 09:49:04;;;;;;;6.18;2.00;;;;;;;6.83;76.16;100215.88;5035336;28;20426;-81
2021/12/07 09:51:29;;;;;;;5.00;1.80;;;;;;;7.30;73.52;100203.44;5034266;28;20766;-80
2021/12/07 09:53:56;;;;;;;7.43;2.40;;;;;;;7.44;72.03;100204.88;5048981;28;20408;-81
2021/12/07 09:56:23;;;;;;;6.00;2.42;;;;;;;7.46;72.08;100204.63;5034104;28;20415;-80
2021/12/07 09:58:50;;;;;;;6.30;2.55;;;;;;;7.58;70.84;100200.09;5033211;28;21022;-80
2021/12/07 10:01:17;;;;;;;7.63;2.58;;;;;;;7.96;68.03;100178.91;5036348;28;20441;-80
2021/12/07 10:03:43;;;;;;;5.18;1.92;;;;;;;7.23;69.76;100191.91;5037459;28;20449;-80
2021/12/07 10:06:09;;;;;;;3.47;1.73;;;;;;;7.00;70.54;100184.56;5042856;28;20397;-80
2021/12/07 10:08:35;;;;;;;3.55;1.70;;;;;;;6.71;72.22;100190.75;5036549;28;20555;-80
2021/12/07 10:11:02;;;;;;;5.03;2.15;;;;;;;6.83;70.61;100190.81;5037707;28;20389;-80
2021/12/07 10:13:29;;;;;;;8.05;1.80;;;;;;;7.01;71.20;100188.09;5035925;28;20404;-80
2021/12/07 10:15:57;;;;;;;5.70;2.17;;;;;;;6.86;71.07;100190.34;5046617;28;20390;-80
2021/12/07 10:18:26;;;;;;;8.40;2.08;;;;;;;6.54;72.35;100184.34;5042441;28;20426;-80
2021/12/07 10:21:01;;;;;;;5.85;2.08;;;;;;;6.43;72.12;100177.00;5038341;28;20414;-80
2021/12/07 10:23:37;;;;;;;6.78;3.28;;;;;;;6.01;72.88;100170.63;5047999;28;20471;-80
2021/12/07 10:26:08;;;;;;;5.10;2.72;;;;;;;5.93;74.48;100170.94;5042209;28;20404;-80
2021/12/07 10:28:49;;;;;;;4.10;1.90;;;;;;;5.90;74.47;100158.72;5037609;28;20418;-80
2021/12/07 10:31:27;;;;;;;8.55;2.47;;;;;;;5.84;73.83;100145.31;5038658;28;20419;-80
2021/12/07 10:33:57;;;;;;;4.50;1.88;;;;;;;5.73;74.49;100136.09;5035349;28;20486;-81
2021/12/07 10:36:35;;;;;;;8.85;2.10;;;;;;;5.72;75.01;100129.09;5036074;28;20412;-80
2021/12/07 10:39:15;;;;;;;9.43;1.88;;;;;;;5.74;74.69;100122.44;5042468;28;20884;-80
2021/12/07 10:41:43;;;;;;;3.57;1.50;;;;;;;5.73;74.41;100122.66;5033969;28;20501;-80
2021/12/07 10:44:12;;;;;;;3.28;1.60;;;;;;;5.84;74.12;100113.03;5040243;28;20732;-80
2021/12/07 10:46:53;;;;;;;4.75;1.70;;;;;;;5.82;74.18;100110.59;5045411;28;20410;-80
2021/12/07 10:49:30;;;;;;;7.70;1.50;;;;;;;5.79;74.44;100112.91;5032716;28;20465;-80
2021/12/07 10:52:09;;;;;;;5.70;1.80;;;;;;;5.81;74.69;100111.63;5047418;28;20407;-79
2021/12/07 10:55:04;;;;;;;13.15;2.67;;;;;;;5.87;74.77;100110.75;5046671;28;20459;-80
2021/12/07 10:57:32;;;;;;;2.83;1.77;;;;;;;5.74;74.65;100119.75;5038054;28;20405;-81
2021/12/07 11:00:03;;;;;;;5.07;1.30;;;;;;;5.85;73.38;100118.22;5034504;28;20419;-80
2021/12/07 11:02:33;;;;;;;7.90;1.80;;;;;;;5.88;72.71;100109.72;5049204;28;20478;-81
2021/12/07 11:04:59;;;;;;;4.57;1.67;;;;;;;5.89;73.64;100114.06;5039924;28;20457;-81
2021/12/07 11:07:28;;;;;;;8.40;3.30;;;;;;;5.88;72.48;100120.50;5046861;28;20457;-80
2021/12/07 11:10:49;;;;;;;5.80;2.40;;;;;;;6.11;72.25;100126.03;5042800;28;20416;-81
2021/12/07 11:15:25;;;;;;;3.97;1.40;;;;;;;6.66;70.82;100109.81;5040425;28;20413;-81
2021/12/07 11:17:54;;;;;;;4.75;1.63;;;;;;;6.89;70.01;100104.53;5040681;28;20465;-80
2021/12/07 11:20:20;;;;;;;5.30;1.60;;;;;;;6.97;70.05;100096.13;5046255;28;20459;-81
2021/12/07 11:22:54;;;;;;;3.05;1.35;;;;;;;7.10;69.35;100089.72;5034701;28;20439;-81
2021/12/07 11:31:25;;;;;;;6.27;2.10;;;;;;;6.99;66.67;100074.31;5011426;28;20479;-80
2021/12/07 11:33:53;;;;;;;4.05;1.42;;;;;;;6.84;67.66;100064.00;5031708;28;20399;-82
2021/12/07 11:36:24;;;;;;;4.38;1.50;;;;;;;6.73;68.09;100045.94;5039878;28;20959;-81
2021/12/07 11:38:52;;;;;;;6.63;1.67;;;;;;;6.92;68.25;100054.75;5034179;28;20474;-81
2021/12/07 11:41:25;;;;;;;4.22;1.38;;;;;;;6.77;68.07;100041.72;5035039;28;20764;-82
2021/12/07 11:44:05;;;;;;;6.68;1.60;;;;;;;6.54;68.73;100038.97;5034404;28;20425;-82
2021/12/07 11:46:32;;;;;;;6.97;2.55;;;;;;;6.55;68.67;100033.34;5034602;28;20459;-82
2021/12/07 11:49:17;;;;;;;4.30;2.03;;;;;;;6.46;68.15;100032.03;5037344;28;20422;-81
2021/12/07 11:51:45;;;;;;;4.00;2.20;;;;;;;6.33;68.73;100020.59;5035581;28;20483;-81
2021/12/07 11:54:11;;;;;;;6.28;2.45;;;;;;;6.17;70.09;100025.59;5041978;28;20391;-81
2021/12/07 11:56:37;;;;;;;5.05;1.67;;;;;;;6.09;70.11;100019.72;5035405;28;20522;-81
2021/12/07 11:59:06;;;;;;;5.63;1.80;;;;;;;6.00;71.23;100018.34;5041241;28;20899;-80
2021/12/07 12:01:31;;;;;;;5.97;1.70;;;;;;;6.07;70.69;100016.41;5034415;28;20403;-81
2021/12/07 12:03:57;;;;;;;10.03;4.00;;;;;;;6.05;71.18;100005.88;5032303;28;20410;-81
2021/12/07 12:06:22;;;;;;;10.60;4.47;;;;;;;6.00;70.17;99997.66;5035334;28;20908;-81
2021/12/07 12:08:49;;;;;;;7.93;2.42;;;;;;;6.06;69.91;99999.44;5045549;28;20409;-80
2021/12/07 12:11:31;;;;;;;10.70;4.53;;;;;;;6.08;71.01;99996.53;5042243;28;20904;-80
2021/12/07 12:14:31;;;;;;;14.00;4.77;;;;;;;6.05;70.64;99981.69;5037551;28;20421;-81
2021/12/07 12:17:13;;;;;;;8.38;2.88;;;;;;;5.97;70.15;99975.78;5033752;28;20399;-81
2021/12/07 12:20:04;;;;;;;10.57;4.53;;;;;;;5.95;69.53;99972.50;5032154;28;20446;-80
2021/12/07 12:22:38;;;;;;;9.23;3.63;;;;;;;5.97;69.88;99970.38;5031858;28;20717;-80
2021/12/07 12:25:10;;;;;;;7.57;2.90;;;;;;;5.97;69.88;99965.00;5038069;28;20408;-81
2021/12/07 12:27:36;;;;;;;7.90;2.70;;;;;;;5.94;70.15;99960.91;5033764;28;20406;-80
2021/12/07 12:30:18;;;;;;;4.75;1.90;;;;;;;5.96;69.46;99958.81;5039420;28;20407;-80
2021/12/07 12:32:46;;;;;;;7.87;2.10;;;;;;;5.93;69.66;99955.78;5031833;28;20399;-80
2021/12/07 12:35:13;;;;;;;6.13;2.10;;;;;;;5.95;69.80;99959.06;5046041;28;20468;-80
2021/12/07 12:37:46;;;;;;;6.07;2.25;;;;;;;5.94;68.89;99955.53;5033467;28;20970;-81
2021/12/07 12:40:26;;;;;;;6.78;1.55;;;;;;;5.94;68.89;99957.41;5031727;28;20441;-80
2021/12/07 12:42:54;;;;;;;6.18;1.83;;;;;;;5.99;69.60;99955.69;5033690;28;20751;-81
2021/12/07 12:45:27;;;;;;;6.43;1.60;;;;;;;5.99;69.55;99955.69;5043257;28;20421;-81
2021/12/07 12:47:54;;;;;;;4.93;2.30;;;;;;;5.97;69.92;99948.88;5044072;28;20424;-80
2021/12/07 12:50:27;;;;;;;6.85;2.00;;;;;;;5.96;70.53;99955.31;5043557;28;20893;-81
2021/12/07 12:52:57;;;;;;;9.85;1.90;;;;;;;5.96;69.56;99950.75;5045671;28;20413;-81
2021/12/07 12:55:43;;;;;;;7.00;2.05;;;;;;;6.02;69.42;99951.72;5037144;28;20444;-81
2021/12/07 12:58:13;;;;;;;7.93;3.38;;;;;;;6.00;69.22;99938.47;5039535;28;20457;-80
2021/12/07 13:00:59;;;;;;;6.47;1.55;;;;;;;6.01;68.83;99934.75;5038291;28;20415;-79
2021/12/07 13:03:26;;;;;;;5.15;1.58;;;;;;;6.05;68.17;99935.94;5042421;28;20884;-80
2021/12/07 13:06:00;;;;;;;4.70;1.58;;;;;;;6.15;68.90;99933.53;5044801;28;20865;-79
2021/12/07 13:08:26;;;;;;;8.45;1.58;;;;;;;6.35;68.24;99932.41;5054587;28;20575;-78
2021/12/07 13:11:02;;;;;;;2.90;1.30;;;;;;;6.53;67.94;99927.75;5046250;28;20506;-79
2021/12/07 13:13:36;;;;;;;5.38;1.15;;;;;;;6.51;65.67;99919.13;5041524;28;20418;-79
2021/12/07 13:16:13;;;;;;;11.57;4.25;;;;;;;6.57;66.78;99917.34;5040052;28;20433;-78
2021/12/07 13:18:41;;;;;;;7.22;2.08;;;;;;;6.54;66.13;99910.56;5040709;28;20807;-78
2021/12/07 13:21:28;;;;;;;12.75;4.10;;;;;;;6.45;65.70;99903.06;5042654;28;20489;-80
2021/12/07 13:24:07;;;;;;;6.35;1.80;;;;;;;6.35;65.26;99892.88;5040805;28;20419;-80
2021/12/07 13:26:39;;;;;;;5.22;1.70;;;;;;;6.35;64.81;99881.28;5033706;28;20450;-82